sensor_id;sensor_type;location;lat;lon;timestamp;temperature;humidity
18581;DHT22;9420;50.876;7.012;2023-11-21T00:02:22;8.72;90.66
18581;DHT22;9420;50.876;7.012;2023-11-21T00:04:49;8.78;90.69
18581;DHT22;9420;50.876;7.012;2023-11-21T00:07:16;8.85;90.01
18581;DHT22;9420;50.876;7.012;2023-11-21T00:09:42;8.88;90.03
18581;DHT22;9420;50.876;7.012;2023-11-21T00:12:09;8.89;89.90
18581;DHT22;9420;50.876;7.012;2023-11-21T00:14:36;8.91;89.92
18581;DHT22;9420;50.876;7.012;2023-11-21T00:17:03;8.92;89.79
18581;DHT22;9420;50.876;7.012;2023-11-21T00:19:32;8.88;89.84
18581;DHT22;9420;50.876;7.012;2023-11-21T00:21:58;8.92;89.60
18581;DHT22;9420;50.876;7.012;2023-11-21T00:24:25;8.82;89.69
18581;DHT22;9420;50.876;7.012;2023-11-21T00:26:52;8.75;89.93
18581;DHT22;9420;50.876;7.012;2023-11-21T00:29:18;8.72;89.79
18581;DHT22;9420;50.876;7.012;2023-11-21T00:31:45;8.72;90.13
18581;DHT22;9420;50.876;7.012;2023-11-21T00:34:12;8.78;89.87
18581;DHT22;9420;50.876;7.012;2023-11-21T00:36:40;8.83;89.91
18581;DHT22;9420;50.876;7.012;2023-11-21T00:39:07;8.83;89.79
18581;DHT22;9420;50.876;7.012;2023-11-21T00:41:34;8.86;89.91
18581;DHT22;9420;50.876;7.012;2023-11-21T00:44:01;8.85;89.77
18581;DHT22;9420;50.876;7.012;2023-11-21T00:46:28;8.82;89.81
18581;DHT22;9420;50.876;7.012;2023-11-21T00:48:55;8.82;89.65
18581;DHT22;9420;50.876;7.012;2023-11-21T00:51:22;8.78;89.82
18581;DHT22;9420;50.876;7.012;2023-11-21T00:53:51;8.82;89.73
18581;DHT22;9420;50.876;7.012;2023-11-21T00:56:18;8.86;89.81
18581;DHT22;9420;50.876;7.012;2023-11-21T00:58:45;8.89;89.59
18581;DHT22;9420;50.876;7.012;2023-11-21T01:01:15;8.88;89.67
18581;DHT22;9420;50.876;7.012;2023-11-21T01:03:42;8.86;89.65
18581;DHT22;9420;50.876;7.012;2023-11-21T01:06:08;8.83;89.83
18581;DHT22;9420;50.876;7.012;2023-11-21T01:08:35;8.85;89.83
18581;DHT22;9420;50.876;7.012;2023-11-21T01:11:04;8.83;89.46
18581;DHT22;9420;50.876;7.012;2023-11-21T01:13:33;8.82;89.70
18581;DHT22;9420;50.876;7.012;2023-11-21T01:16:00;8.88;89.57
18581;DHT22;9420;50.876;7.012;2023-11-21T01:18:27;8.82;89.42
18581;DHT22;9420;50.876;7.012;2023-11-21T01:20:54;8.85;89.51
18581;DHT22;9420;50.876;7.012;2023-11-21T01:23:21;8.81;89.47
18581;DHT22;9420;50.876;7.012;2023-11-21T01:25:48;8.75;89.60
18581;DHT22;9420;50.876;7.012;2023-11-21T01:28:16;8.65;89.79
18581;DHT22;9420;50.876;7.012;2023-11-21T01:30:42;8.51;89.97
18581;DHT22;9420;50.876;7.012;2023-11-21T01:33:10;8.51;90.01
18581;DHT22;9420;50.876;7.012;2023-11-21T01:35:36;8.41;89.97
18581;DHT22;9420;50.876;7.012;2023-11-21T01:38:03;8.48;90.07
18581;DHT22;9420;50.876;7.012;2023-11-21T01:40:30;8.45;90.17
18581;DHT22;9420;50.876;7.012;2023-11-21T01:42:56;8.57;90.03
18581;DHT22;9420;50.876;7.012;2023-11-21T01:45:25;8.57;90.11
18581;DHT22;9420;50.876;7.012;2023-11-21T01:47:52;8.58;90.24
18581;DHT22;9420;50.876;7.012;2023-11-21T01:50:18;8.57;90.28
18581;DHT22;9420;50.876;7.012;2023-11-21T01:52:47;8.52;90.30
18581;DHT22;9420;50.876;7.012;2023-11-21T01:55:16;8.57;90.23
18581;DHT22;9420;50.876;7.012;2023-11-21T01:57:44;8.54;90.31
18581;DHT22;9420;50.876;7.012;2023-11-21T02:00:12;8.50;90.31
18581;DHT22;9420;50.876;7.012;2023-11-21T02:02:43;8.52;90.15
18581;DHT22;9420;50.876;7.012;2023-11-21T02:05:10;8.62;90.24
18581;DHT22;9420;50.876;7.012;2023-11-21T02:07:38;8.62;90.20
18581;DHT22;9420;50.876;7.012;2023-11-21T02:10:06;8.65;89.88
18581;DHT22;9420;50.876;7.012;2023-11-21T02:12:33;8.65;89.68
18581;DHT22;9420;50.876;7.012;2023-11-21T02:15:02;8.61;89.79
18581;DHT22;9420;50.876;7.012;2023-11-21T02:17:30;8.65;89.79
18581;DHT22;9420;50.876;7.012;2023-11-21T02:19:59;8.54;90.16
18581;DHT22;9420;50.876;7.012;2023-11-21T02:22:26;8.48;90.32
18581;DHT22;9420;50.876;7.012;2023-11-21T02:24:57;8.38;90.26
18581;DHT22;9420;50.876;7.012;2023-11-21T02:27:24;8.37;90.25
18581;DHT22;9420;50.876;7.012;2023-11-21T02:29:52;8.24;90.38
18581;DHT22;9420;50.876;7.012;2023-11-21T02:32:19;8.12;90.45
18581;DHT22;9420;50.876;7.012;2023-11-21T02:34:48;8.00;90.65
18581;DHT22;9420;50.876;7.012;2023-11-21T02:37:15;8.04;90.73
18581;DHT22;9420;50.876;7.012;2023-11-21T02:39:41;8.03;90.86
18581;DHT22;9420;50.876;7.012;2023-11-21T02:42:09;8.09;90.95
18581;DHT22;9420;50.876;7.012;2023-11-21T02:44:36;8.12;90.88
18581;DHT22;9420;50.876;7.012;2023-11-21T02:47:03;8.04;90.85
18581;DHT22;9420;50.876;7.012;2023-11-21T02:49:29;8.14;90.91
18581;DHT22;9420;50.876;7.012;2023-11-21T02:51:56;8.17;90.98
18581;DHT22;9420;50.876;7.012;2023-11-21T02:54:23;8.17;90.88
18581;DHT22;9420;50.876;7.012;2023-11-21T02:56:49;8.13;90.83
18581;DHT22;9420;50.876;7.012;2023-11-21T02:59:17;8.10;90.95
18581;DHT22;9420;50.876;7.012;2023-11-21T03:01:44;8.20;90.65
18581;DHT22;9420;50.876;7.012;2023-11-21T03:04:11;8.23;90.47
18581;DHT22;9420;50.876;7.012;2023-11-21T03:06:43;8.27;90.39
18581;DHT22;9420;50.876;7.012;2023-11-21T03:09:09;8.24;90.50
18581;DHT22;9420;50.876;7.012;2023-11-21T03:11:37;8.26;90.56
18581;DHT22;9420;50.876;7.012;2023-11-21T03:14:03;8.24;90.31
18581;DHT22;9420;50.876;7.012;2023-11-21T03:16:31;8.19;90.55
18581;DHT22;9420;50.876;7.012;2023-11-21T03:18:58;8.20;90.80
18581;DHT22;9420;50.876;7.012;2023-11-21T03:21:25;8.27;90.61
18581;DHT22;9420;50.876;7.012;2023-11-21T03:23:51;8.31;90.34
18581;DHT22;9420;50.876;7.012;2023-11-21T03:26:18;8.31;90.56
18581;DHT22;9420;50.876;7.012;2023-11-21T03:28:45;8.30;90.61
18581;DHT22;9420;50.876;7.012;2023-11-21T03:31:12;8.36;90.48
18581;DHT22;9420;50.876;7.012;2023-11-21T03:33:40;8.33;90.29
18581;DHT22;9420;50.876;7.012;2023-11-21T03:36:07;8.31;90.55
18581;DHT22;9420;50.876;7.012;2023-11-21T03:38:34;8.31;90.48
18581;DHT22;9420;50.876;7.012;2023-11-21T03:41:01;8.27;90.61
18581;DHT22;9420;50.876;7.012;2023-11-21T03:43:27;8.36;90.45
18581;DHT22;9420;50.876;7.012;2023-11-21T03:45:54;8.36;90.15
18581;DHT22;9420;50.876;7.012;2023-11-21T03:48:21;8.30;90.36
18581;DHT22;9420;50.876;7.012;2023-11-21T03:50:49;8.33;90.49
18581;DHT22;9420;50.876;7.012;2023-11-21T03:53:16;8.29;90.66
18581;DHT22;9420;50.876;7.012;2023-11-21T03:55:42;8.37;90.54
18581;DHT22;9420;50.876;7.012;2023-11-21T03:58:09;8.31;90.70
18581;DHT22;9420;50.876;7.012;2023-11-21T04:00:36;8.34;90.61
18581;DHT22;9420;50.876;7.012;2023-11-21T04:03:02;8.31;90.57
18581;DHT22;9420;50.876;7.012;2023-11-21T04:05:30;8.31;90.76
18581;DHT22;9420;50.876;7.012;2023-11-21T04:07:58;8.26;90.88
18581;DHT22;9420;50.876;7.012;2023-11-21T04:10:24;8.29;90.64
18581;DHT22;9420;50.876;7.012;2023-11-21T04:12:51;8.31;90.61
18581;DHT22;9420;50.876;7.012;2023-11-21T04:15:17;8.31;90.56
18581;DHT22;9420;50.876;7.012;2023-11-21T04:17:44;8.27;90.63
18581;DHT22;9420;50.876;7.012;2023-11-21T04:20:11;8.24;90.49
18581;DHT22;9420;50.876;7.012;2023-11-21T04:22:38;8.26;90.55
18581;DHT22;9420;50.876;7.012;2023-11-21T04:25:10;8.29;90.48
18581;DHT22;9420;50.876;7.012;2023-11-21T04:27:38;8.23;90.66
18581;DHT22;9420;50.876;7.012;2023-11-21T04:30:06;8.23;90.73
18581;DHT22;9420;50.876;7.012;2023-11-21T04:32:33;8.23;90.76
18581;DHT22;9420;50.876;7.012;2023-11-21T04:35:00;8.23;90.66
18581;DHT22;9420;50.876;7.012;2023-11-21T04:37:26;8.17;90.72
18581;DHT22;9420;50.876;7.012;2023-11-21T04:39:53;8.26;90.52
18581;DHT22;9420;50.876;7.012;2023-11-21T04:42:21;8.23;90.54
18581;DHT22;9420;50.876;7.012;2023-11-21T04:44:48;8.23;90.38
18581;DHT22;9420;50.876;7.012;2023-11-21T04:47:15;8.19;90.39
18581;DHT22;9420;50.876;7.012;2023-11-21T04:49:42;8.12;90.79
18581;DHT22;9420;50.876;7.012;2023-11-21T04:52:09;8.14;90.71
18581;DHT22;9420;50.876;7.012;2023-11-21T04:54:36;8.19;90.73
18581;DHT22;9420;50.876;7.012;2023-11-21T04:57:03;8.10;90.46
18581;DHT22;9420;50.876;7.012;2023-11-21T04:59:31;8.07;90.62
18581;DHT22;9420;50.876;7.012;2023-11-21T05:01:58;7.99;90.65
18581;DHT22;9420;50.876;7.012;2023-11-21T05:04:25;7.97;90.91
18581;DHT22;9420;50.876;7.012;2023-11-21T05:06:52;8.10;90.71
18581;DHT22;9420;50.876;7.012;2023-11-21T05:09:19;8.04;90.63
18581;DHT22;9420;50.876;7.012;2023-11-21T05:11:47;8.02;90.60
18581;DHT22;9420;50.876;7.012;2023-11-21T05:14:14;8.00;90.63
18581;DHT22;9420;50.876;7.012;2023-11-21T05:16:42;8.06;90.59
18581;DHT22;9420;50.876;7.012;2023-11-21T05:19:09;7.92;90.50
18581;DHT22;9420;50.876;7.012;2023-11-21T05:21:35;7.85;90.66
18581;DHT22;9420;50.876;7.012;2023-11-21T05:24:02;7.81;90.66
18581;DHT22;9420;50.876;7.012;2023-11-21T05:26:30;7.75;90.74
18581;DHT22;9420;50.876;7.012;2023-11-21T05:28:57;7.94;90.91
18581;DHT22;9420;50.876;7.012;2023-11-21T05:31:23;8.03;90.84
18581;DHT22;9420;50.876;7.012;2023-11-21T05:33:51;8.02;90.71
18581;DHT22;9420;50.876;7.012;2023-11-21T05:36:18;7.92;90.66
18581;DHT22;9420;50.876;7.012;2023-11-21T05:38:45;7.87;90.72
18581;DHT22;9420;50.876;7.012;2023-11-21T05:41:11;7.82;90.75
18581;DHT22;9420;50.876;7.012;2023-11-21T05:43:38;7.85;90.89
18581;DHT22;9420;50.876;7.012;2023-11-21T05:46:05;7.86;90.88
18581;DHT22;9420;50.876;7.012;2023-11-21T05:48:32;7.94;90.78
18581;DHT22;9420;50.876;7.012;2023-11-21T05:51:00;7.90;90.78
18581;DHT22;9420;50.876;7.012;2023-11-21T05:53:27;7.93;90.86
18581;DHT22;9420;50.876;7.012;2023-11-21T05:55:54;7.89;90.83
18581;DHT22;9420;50.876;7.012;2023-11-21T05:58:21;7.89;90.91
18581;DHT22;9420;50.876;7.012;2023-11-21T06:00:47;7.94;90.88
18581;DHT22;9420;50.876;7.012;2023-11-21T06:03:14;7.87;90.97
18581;DHT22;9420;50.876;7.012;2023-11-21T06:05:42;7.92;90.76
18581;DHT22;9420;50.876;7.012;2023-11-21T06:08:11;7.94;90.81
18581;DHT22;9420;50.876;7.012;2023-11-21T06:10:37;7.92;90.75
18581;DHT22;9420;50.876;7.012;2023-11-21T06:13:04;7.96;90.86
18581;DHT22;9420;50.876;7.012;2023-11-21T06:15:32;7.86;90.76
18581;DHT22;9420;50.876;7.012;2023-11-21T06:17:59;7.93;90.77
18581;DHT22;9420;50.876;7.012;2023-11-21T06:20:26;7.92;90.72
18581;DHT22;9420;50.876;7.012;2023-11-21T06:22:53;7.81;90.69
18581;DHT22;9420;50.876;7.012;2023-11-21T06:25:21;7.85;90.84
18581;DHT22;9420;50.876;7.012;2023-11-21T06:27:50;7.93;90.93
18581;DHT22;9420;50.876;7.012;2023-11-21T06:30:19;7.90;90.93
18581;DHT22;9420;50.876;7.012;2023-11-21T06:32:47;7.90;90.95
18581;DHT22;9420;50.876;7.012;2023-11-21T06:35:13;7.89;91.03
18581;DHT22;9420;50.876;7.012;2023-11-21T06:37:40;7.93;91.03
18581;DHT22;9420;50.876;7.012;2023-11-21T06:40:12;7.89;91.04
18581;DHT22;9420;50.876;7.012;2023-11-21T06:42:41;7.90;91.01
18581;DHT22;9420;50.876;7.012;2023-11-21T06:45:09;7.97;90.96
18581;DHT22;9420;50.876;7.012;2023-11-21T06:47:36;8.02;90.91
18581;DHT22;9420;50.876;7.012;2023-11-21T06:50:03;8.06;90.72
18581;DHT22;9420;50.876;7.012;2023-11-21T06:52:30;8.04;90.62
18581;DHT22;9420;50.876;7.012;2023-11-21T06:54:57;8.03;90.56
18581;DHT22;9420;50.876;7.012;2023-11-21T06:57:24;8.10;90.39
18581;DHT22;9420;50.876;7.012;2023-11-21T06:59:51;8.06;90.60
18581;DHT22;9420;50.876;7.012;2023-11-21T07:02:18;8.10;90.49
18581;DHT22;9420;50.876;7.012;2023-11-21T07:04:45;8.06;90.42
18581;DHT22;9420;50.876;7.012;2023-11-21T07:07:12;8.07;90.37
18581;DHT22;9420;50.876;7.012;2023-11-21T07:09:39;8.06;90.65
18581;DHT22;9420;50.876;7.012;2023-11-21T07:12:06;8.10;90.49
18581;DHT22;9420;50.876;7.012;2023-11-21T07:14:33;8.09;90.62
18581;DHT22;9420;50.876;7.012;2023-11-21T07:17:01;8.14;90.50
18581;DHT22;9420;50.876;7.012;2023-11-21T07:19:27;8.10;90.32
18581;DHT22;9420;50.876;7.012;2023-11-21T07:21:54;8.12;90.46
18581;DHT22;9420;50.876;7.012;2023-11-21T07:24:21;8.16;90.46
18581;DHT22;9420;50.876;7.012;2023-11-21T07:26:49;8.16;90.38
18581;DHT22;9420;50.876;7.012;2023-11-21T07:29:15;8.20;90.19
18581;DHT22;9420;50.876;7.012;2023-11-21T07:31:42;8.16;90.40
18581;DHT22;9420;50.876;7.012;2023-11-21T07:34:10;8.23;90.35
18581;DHT22;9420;50.876;7.012;2023-11-21T07:36:37;8.34;90.12
18581;DHT22;9420;50.876;7.012;2023-11-21T07:39:04;8.30;90.12
18581;DHT22;9420;50.876;7.012;2023-11-21T07:41:31;8.33;90.30
18581;DHT22;9420;50.876;7.012;2023-11-21T07:43:58;8.38;90.20
18581;DHT22;9420;50.876;7.012;2023-11-21T07:46:25;8.47;90.24
18581;DHT22;9420;50.876;7.012;2023-11-21T07:48:52;8.48;90.08
18581;DHT22;9420;50.876;7.012;2023-11-21T07:51:21;8.52;89.68
18581;DHT22;9420;50.876;7.012;2023-11-21T07:53:48;8.64;89.62
18581;DHT22;9420;50.876;7.012;2023-11-21T07:56:15;8.65;89.46
18581;DHT22;9420;50.876;7.012;2023-11-21T07:58:41;8.67;89.49
18581;DHT22;9420;50.876;7.012;2023-11-21T08:01:08;8.61;89.70
18581;DHT22;9420;50.876;7.012;2023-11-21T08:03:34;8.65;89.50
18581;DHT22;9420;50.876;7.012;2023-11-21T08:06:01;8.71;89.34
18581;DHT22;9420;50.876;7.012;2023-11-21T08:08:32;8.71;89.35
18581;DHT22;9420;50.876;7.012;2023-11-21T08:10:59;8.72;89.23
18581;DHT22;9420;50.876;7.012;2023-11-21T08:13:28;8.79;88.97
18581;DHT22;9420;50.876;7.012;2023-11-21T08:15:56;8.81;88.68
18581;DHT22;9420;50.876;7.012;2023-11-21T08:18:23;8.98;88.91
18581;DHT22;9420;50.876;7.012;2023-11-21T08:20:50;9.06;89.03
18581;DHT22;9420;50.876;7.012;2023-11-21T08:23:16;9.12;89.12
18581;DHT22;9420;50.876;7.012;2023-11-21T08:25:45;9.13;88.90
18581;DHT22;9420;50.876;7.012;2023-11-21T08:28:12;9.12;89.07
18581;DHT22;9420;50.876;7.012;2023-11-21T08:30:40;9.16;88.47
18581;DHT22;9420;50.876;7.012;2023-11-21T08:33:07;9.31;88.38
18581;DHT22;9420;50.876;7.012;2023-11-21T08:35:34;9.31;88.09
18581;DHT22;9420;50.876;7.012;2023-11-21T08:38:01;9.34;87.77
18581;DHT22;9420;50.876;7.012;2023-11-21T08:40:28;9.19;88.03
18581;DHT22;9420;50.876;7.012;2023-11-21T08:42:56;9.06;88.42
18581;DHT22;9420;50.876;7.012;2023-11-21T08:45:24;9.10;88.75
18581;DHT22;9420;50.876;7.012;2023-11-21T08:47:51;9.18;88.94
18581;DHT22;9420;50.876;7.012;2023-11-21T08:50:18;9.10;88.53
18581;DHT22;9420;50.876;7.012;2023-11-21T08:52:45;9.15;88.35
18581;DHT22;9420;50.876;7.012;2023-11-21T08:55:12;9.15;88.22
18581;DHT22;9420;50.876;7.012;2023-11-21T08:57:39;9.18;88.90
18581;DHT22;9420;50.876;7.012;2023-11-21T09:00:10;9.20;88.46
18581;DHT22;9420;50.876;7.012;2023-11-21T09:02:37;9.18;88.45
18581;DHT22;9420;50.876;7.012;2023-11-21T09:05:04;9.18;88.51
18581;DHT22;9420;50.876;7.012;2023-11-21T09:07:32;9.30;88.48
18581;DHT22;9420;50.876;7.012;2023-11-21T09:09:58;9.30;88.64
18581;DHT22;9420;50.876;7.012;2023-11-21T09:12:25;9.24;88.57
18581;DHT22;9420;50.876;7.012;2023-11-21T09:14:51;9.16;88.59
18581;DHT22;9420;50.876;7.012;2023-11-21T09:17:19;9.16;88.26
18581;DHT22;9420;50.876;7.012;2023-11-21T09:19:46;9.23;88.52
18581;DHT22;9420;50.876;7.012;2023-11-21T09:22:16;9.34;88.23
18581;DHT22;9420;50.876;7.012;2023-11-21T09:24:43;9.24;88.19
18581;DHT22;9420;50.876;7.012;2023-11-21T09:27:10;9.26;87.89
18581;DHT22;9420;50.876;7.012;2023-11-21T09:29:36;9.26;87.82
18581;DHT22;9420;50.876;7.012;2023-11-21T09:32:04;9.23;87.78
18581;DHT22;9420;50.876;7.012;2023-11-21T09:34:33;9.29;88.11
18581;DHT22;9420;50.876;7.012;2023-11-21T09:37:01;9.33;87.97
18581;DHT22;9420;50.876;7.012;2023-11-21T09:39:30;9.44;87.78
18581;DHT22;9420;50.876;7.012;2023-11-21T09:42:04;9.46;87.78
18581;DHT22;9420;50.876;7.012;2023-11-21T09:44:42;9.58;87.26
18581;DHT22;9420;50.876;7.012;2023-11-21T09:47:14;9.40;87.44
18581;DHT22;9420;50.876;7.012;2023-11-21T09:49:44;9.29;87.58
18581;DHT22;9420;50.876;7.012;2023-11-21T09:52:18;9.39;87.69
18581;DHT22;9420;50.876;7.012;2023-11-21T09:54:50;9.34;87.46
18581;DHT22;9420;50.876;7.012;2023-11-21T09:57:19;9.43;87.45
18581;DHT22;9420;50.876;7.012;2023-11-21T09:59:47;9.47;87.50
18581;DHT22;9420;50.876;7.012;2023-11-21T10:02:16;9.51;87.81
18581;DHT22;9420;50.876;7.012;2023-11-21T10:04:46;9.47;87.68
18581;DHT22;9420;50.876;7.012;2023-11-21T10:07:13;9.46;87.67
18581;DHT22;9420;50.876;7.012;2023-11-21T10:09:42;9.43;87.72
18581;DHT22;9420;50.876;7.012;2023-11-21T10:12:10;9.47;87.73
18581;DHT22;9420;50.876;7.012;2023-11-21T10:14:41;9.43;87.63
18581;DHT22;9420;50.876;7.012;2023-11-21T10:17:10;9.50;88.28
18581;DHT22;9420;50.876;7.012;2023-11-21T10:19:38;9.51;88.56
18581;DHT22;9420;50.876;7.012;2023-11-21T10:22:07;9.41;88.08
18581;DHT22;9420;50.876;7.012;2023-11-21T10:24:34;9.47;87.71
18581;DHT22;9420;50.876;7.012;2023-11-21T10:27:01;9.51;87.78
18581;DHT22;9420;50.876;7.012;2023-11-21T10:29:29;9.68;87.33
18581;DHT22;9420;50.876;7.012;2023-11-21T10:31:56;9.62;87.62
18581;DHT22;9420;50.876;7.012;2023-11-21T10:34:24;9.67;87.66
18581;DHT22;9420;50.876;7.012;2023-11-21T10:36:53;9.70;87.69
18581;DHT22;9420;50.876;7.012;2023-11-21T10:39:24;9.74;87.46
18581;DHT22;9420;50.876;7.012;2023-11-21T10:41:54;9.85;87.16
18581;DHT22;9420;50.876;7.012;2023-11-21T10:44:21;9.81;86.77
18581;DHT22;9420;50.876;7.012;2023-11-21T10:46:49;9.75;87.22
18581;DHT22;9420;50.876;7.012;2023-11-21T10:49:17;9.77;86.97
18581;DHT22;9420;50.876;7.012;2023-11-21T10:51:44;9.82;87.78
18581;DHT22;9420;50.876;7.012;2023-11-21T10:54:11;9.82;87.15
18581;DHT22;9420;50.876;7.012;2023-11-21T10:56:40;9.82;86.68
18581;DHT22;9420;50.876;7.012;2023-11-21T10:59:10;9.88;87.50
18581;DHT22;9420;50.876;7.012;2023-11-21T11:01:40;9.89;87.71
18581;DHT22;9420;50.876;7.012;2023-11-21T11:04:08;9.89;87.67
18581;DHT22;9420;50.876;7.012;2023-11-21T11:06:41;9.85;87.55
18581;DHT22;9420;50.876;7.012;2023-11-21T11:09:08;9.82;87.03
18581;DHT22;9420;50.876;7.012;2023-11-21T11:11:42;9.75;86.86
18581;DHT22;9420;50.876;7.012;2023-11-21T11:14:10;9.74;87.01
18581;DHT22;9420;50.876;7.012;2023-11-21T11:16:39;9.68;86.99
18581;DHT22;9420;50.876;7.012;2023-11-21T11:19:06;9.71;87.15
18581;DHT22;9420;50.876;7.012;2023-11-21T11:21:42;9.87;86.84
18581;DHT22;9420;50.876;7.012;2023-11-21T11:24:36;9.99;86.26
18581;DHT22;9420;50.876;7.012;2023-11-21T11:27:17;9.99;86.92
18581;DHT22;9420;50.876;7.012;2023-11-21T11:29:55;10.08;86.64
18581;DHT22;9420;50.876;7.012;2023-11-21T11:32:27;9.99;86.41
18581;DHT22;9420;50.876;7.012;2023-11-21T11:35:04;9.87;86.04
18581;DHT22;9420;50.876;7.012;2023-11-21T11:37:33;9.99;86.13
18581;DHT22;9420;50.876;7.012;2023-11-21T11:40:00;10.05;85.70
18581;DHT22;9420;50.876;7.012;2023-11-21T11:42:28;9.99;85.90
18581;DHT22;9420;50.876;7.012;2023-11-21T11:44:55;10.01;86.14
18581;DHT22;9420;50.876;7.012;2023-11-21T11:47:24;10.13;85.85
18581;DHT22;9420;50.876;7.012;2023-11-21T11:50:07;10.12;85.79
18581;DHT22;9420;50.876;7.012;2023-11-21T11:52:39;10.22;85.44
18581;DHT22;9420;50.876;7.012;2023-11-21T11:55:07;10.19;85.36
18581;DHT22;9420;50.876;7.012;2023-11-21T11:57:37;10.26;85.19
18581;DHT22;9420;50.876;7.012;2023-11-21T12:00:11;10.30;85.63
18581;DHT22;9420;50.876;7.012;2023-11-21T12:02:42;10.18;85.33
18581;DHT22;9420;50.876;7.012;2023-11-21T12:05:10;10.22;85.46
18581;DHT22;9420;50.876;7.012;2023-11-21T12:07:43;10.33;85.12
18581;DHT22;9420;50.876;7.012;2023-11-21T12:10:12;10.49;85.11
18581;DHT22;9420;50.876;7.012;2023-11-21T12:12:46;10.47;84.99
18581;DHT22;9420;50.876;7.012;2023-11-21T12:15:13;10.39;85.28
18581;DHT22;9420;50.876;7.012;2023-11-21T12:17:41;10.35;85.54
18581;DHT22;9420;50.876;7.012;2023-11-21T12:20:09;10.35;85.52
18581;DHT22;9420;50.876;7.012;2023-11-21T12:22:44;10.29;85.42
18581;DHT22;9420;50.876;7.012;2023-11-21T12:25:13;10.25;85.09
18581;DHT22;9420;50.876;7.012;2023-11-21T12:27:43;10.20;85.56
18581;DHT22;9420;50.876;7.012;2023-11-21T12:30:13;10.42;85.10
18581;DHT22;9420;50.876;7.012;2023-11-21T12:32:41;10.70;84.86
18581;DHT22;9420;50.876;7.012;2023-11-21T12:35:09;10.66;84.69
18581;DHT22;9420;50.876;7.012;2023-11-21T12:37:36;10.45;84.75
18581;DHT22;9420;50.876;7.012;2023-11-21T12:40:05;10.35;84.82
18581;DHT22;9420;50.876;7.012;2023-11-21T12:42:32;10.39;84.97
18581;DHT22;9420;50.876;7.012;2023-11-21T12:45:18;10.35;85.10
18581;DHT22;9420;50.876;7.012;2023-11-21T12:47:47;10.46;85.24
18581;DHT22;9420;50.876;7.012;2023-11-21T12:50:14;10.42;84.96
18581;DHT22;9420;50.876;7.012;2023-11-21T12:52:42;10.33;85.32
18581;DHT22;9420;50.876;7.012;2023-11-21T12:55:14;10.35;85.33
18581;DHT22;9420;50.876;7.012;2023-11-21T12:57:42;10.43;85.15
18581;DHT22;9420;50.876;7.012;2023-11-21T13:00:13;10.37;85.19
18581;DHT22;9420;50.876;7.012;2023-11-21T13:02:52;10.45;84.89
18581;DHT22;9420;50.876;7.012;2023-11-21T13:05:27;10.57;85.03
18581;DHT22;9420;50.876;7.012;2023-11-21T13:07:54;10.73;84.44
18581;DHT22;9420;50.876;7.012;2023-11-21T13:10:23;10.70;84.75
18581;DHT22;9420;50.876;7.012;2023-11-21T13:12:52;10.50;84.77
18581;DHT22;9420;50.876;7.012;2023-11-21T13:15:21;10.53;84.95
18581;DHT22;9420;50.876;7.012;2023-11-21T13:17:48;10.42;84.93
18581;DHT22;9420;50.876;7.012;2023-11-21T13:20:16;10.47;84.46
18581;DHT22;9420;50.876;7.012;2023-11-21T13:22:49;10.37;84.71
18581;DHT22;9420;50.876;7.012;2023-11-21T13:25:17;10.36;84.61
18581;DHT22;9420;50.876;7.012;2023-11-21T13:27:45;10.28;85.09
18581;DHT22;9420;50.876;7.012;2023-11-21T13:30:13;10.28;85.38
18581;DHT22;9420;50.876;7.012;2023-11-21T13:32:44;10.19;85.23
18581;DHT22;9420;50.876;7.012;2023-11-21T13:35:11;10.16;85.55
18581;DHT22;9420;50.876;7.012;2023-11-21T13:37:49;10.33;85.62
18581;DHT22;9420;50.876;7.012;2023-11-21T13:40:20;10.43;84.84
18581;DHT22;9420;50.876;7.012;2023-11-21T13:42:49;10.43;84.70
18581;DHT22;9420;50.876;7.012;2023-11-21T13:45:19;10.42;84.38
18581;DHT22;9420;50.876;7.012;2023-11-21T13:47:50;10.46;84.36
18581;DHT22;9420;50.876;7.012;2023-11-21T13:50:18;10.42;84.54
18581;DHT22;9420;50.876;7.012;2023-11-21T13:52:48;10.47;84.60
18581;DHT22;9420;50.876;7.012;2023-11-21T13:55:16;10.36;84.64
18581;DHT22;9420;50.876;7.012;2023-11-21T13:57:43;10.33;84.48
18581;DHT22;9420;50.876;7.012;2023-11-21T14:00:13;10.36;84.40
18581;DHT22;9420;50.876;7.012;2023-11-21T14:03:02;10.26;84.08
18581;DHT22;9420;50.876;7.012;2023-11-21T14:05:33;10.35;84.00
18581;DHT22;9420;50.876;7.012;2023-11-21T14:08:00;10.29;84.15
18581;DHT22;9420;50.876;7.012;2023-11-21T14:10:29;10.35;83.43
18581;DHT22;9420;50.876;7.012;2023-11-21T14:13:03;10.39;83.85
18581;DHT22;9420;50.876;7.012;2023-11-21T14:15:31;10.29;83.52
18581;DHT22;9420;50.876;7.012;2023-11-21T14:17:58;10.37;83.72
18581;DHT22;9420;50.876;7.012;2023-11-21T14:20:31;10.43;83.81
18581;DHT22;9420;50.876;7.012;2023-11-21T14:22:58;10.35;84.02
18581;DHT22;9420;50.876;7.012;2023-11-21T14:25:25;10.30;84.39
18581;DHT22;9420;50.876;7.012;2023-11-21T14:27:52;10.30;84.09
18581;DHT22;9420;50.876;7.012;2023-11-21T14:30:19;10.26;84.42
18581;DHT22;9420;50.876;7.012;2023-11-21T14:32:47;10.36;84.17
18581;DHT22;9420;50.876;7.012;2023-11-21T14:35:15;10.30;84.40
18581;DHT22;9420;50.876;7.012;2023-11-21T14:37:43;10.35;84.58
18581;DHT22;9420;50.876;7.012;2023-11-21T14:40:12;10.35;84.37
18581;DHT22;9420;50.876;7.012;2023-11-21T14:42:41;10.30;84.36
18581;DHT22;9420;50.876;7.012;2023-11-21T14:45:09;10.35;84.45
18581;DHT22;9420;50.876;7.012;2023-11-21T14:47:41;10.26;84.57
18581;DHT22;9420;50.876;7.012;2023-11-21T14:50:13;10.20;84.97
18581;DHT22;9420;50.876;7.012;2023-11-21T14:53:01;10.13;84.60
18581;DHT22;9420;50.876;7.012;2023-11-21T14:55:31;10.10;84.58
18581;DHT22;9420;50.876;7.012;2023-11-21T14:58:03;10.12;85.20
18581;DHT22;9420;50.876;7.012;2023-11-21T15:00:30;10.12;85.18
18581;DHT22;9420;50.876;7.012;2023-11-21T15:03:12;10.06;85.02
18581;DHT22;9420;50.876;7.012;2023-11-21T15:05:59;10.06;85.55
18581;DHT22;9420;50.876;7.012;2023-11-21T15:08:26;10.03;85.98
18581;DHT22;9420;50.876;7.012;2023-11-21T15:10:57;10.05;85.36
18581;DHT22;9420;50.876;7.012;2023-11-21T15:13:23;10.09;85.46
18581;DHT22;9420;50.876;7.012;2023-11-21T15:15:52;9.99;85.69
18581;DHT22;9420;50.876;7.012;2023-11-21T15:18:19;10.05;86.00
18581;DHT22;9420;50.876;7.012;2023-11-21T15:20:46;9.99;86.42
18581;DHT22;9420;50.876;7.012;2023-11-21T15:23:13;9.99;86.68
18581;DHT22;9420;50.876;7.012;2023-11-21T15:25:44;9.95;87.55
18581;DHT22;9420;50.876;7.012;2023-11-21T15:28:11;9.89;87.29
18581;DHT22;9420;50.876;7.012;2023-11-21T15:30:38;9.79;88.35
18581;DHT22;9420;50.876;7.012;2023-11-21T15:33:05;9.73;88.49
18581;DHT22;9420;50.876;7.012;2023-11-21T15:35:33;9.67;88.77
18581;DHT22;9420;50.876;7.012;2023-11-21T15:38:03;9.64;88.80
18581;DHT22;9420;50.876;7.012;2023-11-21T15:40:29;9.61;89.27
18581;DHT22;9420;50.876;7.012;2023-11-21T15:42:58;9.64;89.25
18581;DHT22;9420;50.876;7.012;2023-11-21T15:45:25;9.70;89.33
18581;DHT22;9420;50.876;7.012;2023-11-21T15:47:51;9.68;89.14
18581;DHT22;9420;50.876;7.012;2023-11-21T15:50:19;9.68;89.42
18581;DHT22;9420;50.876;7.012;2023-11-21T15:52:45;9.64;89.55
18581;DHT22;9420;50.876;7.012;2023-11-21T15:55:12;9.70;89.45
18581;DHT22;9420;50.876;7.012;2023-11-21T15:57:40;9.70;89.09
18581;DHT22;9420;50.876;7.012;2023-11-21T16:00:10;9.71;88.95
18581;DHT22;9420;50.876;7.012;2023-11-21T16:02:42;9.73;88.98
18581;DHT22;9420;50.876;7.012;2023-11-21T16:05:08;9.75;88.97